Weather History for KIJX - March, 2014

Change the Weather History Date:

Saturday, March 1, 2014

  Actual Average (KSPI) Record (KSPI)
Temperature  
Mean Temperature 28 °F 36 °F  
Max Temperature 39 °F 45 °F 73 °F (1992)
Min Temperature 17 °F 27 °F -8 °F (1960)
Degree Days  
Heating Degree Days 37 29  
Month to date heating degree days 29  
Since 1 July heating degree days 4300  
Cooling Degree Days 0 0  
Month to date cooling degree days 0  
Year to date cooling degree days 0  
Moisture  
Dew Point 21 °F    
Average Humidity 78    
Maximum Humidity 92    
Minimum Humidity 51    
Precipitation  
Precipitation 0.00 in 0.08 in 0.83 in (1953)
Month to date precipitation 0.08  
Year to date precipitation 3.71  
Snow  
Snow 0.00 in 0.10 in 7.30 in (1953)
Month to date snowfall 0.1  
Since 1 July snowfall 18.2  
Snow Depth -    
Sea Level Pressure  
Sea Level Pressure 30.19 in    
Wind  
Wind Speed 10 mph (NNW)    
Max Wind Speed 15 mph    
Max Gust Speed 20 mph    
Visibility 7 miles    
Events      
T = Trace of Precipitation, MM = Missing Value Source: NWS Daily Summary

Daily Weather History Graph

Daily Weather History Graph

Search for Another Location

Airport or City:

Trip Planner

Search our weather history database for the weather conditions in past years. The results will help you decide how hot, cold, wet, or windy it might be!

Date:

Astronomy

Mar. 01, 2014 Rise Set
Actual Time 6:34 AM CST 5:53 PM CST
Civil Twilight 6:07 AM CST 6:20 PM CST
Nautical Twilight 5:35 AM CST 6:51 PM CST
Astronomical Twilight 5:04 AM CST 7:22 PM CST
Moon 6:28 AM CST (3/1) 6:40 PM CST (3/1)
Length of Visible Light 12h 13m
Length of Day
11h 18m
New Moon, 0% of the Moon is Illuminated
Mar 1
New Moon
Mar 8
First Quarter
Mar 16
Full
Mar 23
Last Quarter
Mar 30
New

Hourly Weather History & Observations

Time (CST) Temp. Windchill Dew Point Humidity Pressure Visibility Wind Dir Wind Speed Gust Speed Precip Events Conditions
12:15 AM 37.4 °F 32.1 °F 22.8 °F 56% 30.01 in 10.0 mi SSW 6.9 mph - N/A   Overcast
12:35 AM 37.6 °F 32.3 °F 22.8 °F 55% 30.02 in 10.0 mi SSW 6.9 mph - N/A   Overcast
12:55 AM 37.8 °F 31.8 °F 23.0 °F 55% 30.03 in 10.0 mi SSW 8.1 mph - N/A   Overcast
1:15 AM 38.5 °F 32.1 °F 22.8 °F 53% 30.02 in 10.0 mi SSW 9.2 mph - N/A   Overcast
1:35 AM 39.0 °F 32.8 °F 22.6 °F 52% 30.02 in 10.0 mi South 9.2 mph - N/A   Overcast
1:55 AM 39.4 °F 33.8 °F 22.6 °F 51% 30.02 in 10.0 mi SSW 8.1 mph - N/A   Overcast
2:15 AM 39.0 °F 32.8 °F 23.0 °F 53% 30.02 in 10.0 mi SSW 9.2 mph - N/A   Overcast
2:35 AM 38.8 °F 33.2 °F 23.5 °F 54% 30.02 in 10.0 mi SW 8.1 mph - N/A   Mostly Cloudy
2:55 AM 37.6 °F 31.6 °F 24.4 °F 59% 30.02 in 10.0 mi SW 8.1 mph - N/A   Mostly Cloudy
3:15 AM 37.6 °F 31.6 °F 24.6 °F 60% 30.02 in 10.0 mi SSW 8.1 mph - N/A   Mostly Cloudy
3:35 AM 37.6 °F 32.3 °F 24.8 °F 60% 30.04 in 10.0 mi WSW 6.9 mph - N/A   Overcast
3:55 AM 38.3 °F 33.2 °F 24.3 °F 57% 30.05 in 10.0 mi West 6.9 mph - N/A   Overcast
4:15 AM 37.8 °F 31.8 °F 24.4 °F 59% 30.05 in 10.0 mi WNW 8.1 mph - N/A   Overcast
4:35 AM 37.2 °F 32.6 °F 24.1 °F 59% 30.07 in 10.0 mi NW 5.8 mph - N/A   Overcast
4:55 AM 36.9 °F 29.6 °F 23.7 °F 59% 30.07 in 10.0 mi NW 10.4 mph - N/A   Overcast
5:15 AM 36.0 °F 28.0 °F 24.4 °F 63% 30.09 in 10.0 mi NW 11.5 mph - N/A   Overcast
5:35 AM 33.4 °F 23.9 °F 25.5 °F 73% 30.09 in 10.0 mi NW 13.8 mph - N/A   Overcast
5:55 AM 32.0 °F 22.1 °F 25.0 °F 75% 30.09 in 10.0 mi NNW 13.8 mph - N/A   Overcast
6:15 AM 31.8 °F 22.3 °F 25.5 °F 78% 30.10 in 10.0 mi NNW 12.7 mph - N/A   Overcast
6:35 AM 30.2 °F 20.8 °F 25.3 °F 82% 30.10 in 10.0 mi North 11.5 mph - N/A   Overcast
6:55 AM 30.0 °F 20.0 °F 25.3 °F 83% 30.13 in 7.0 mi NNW 12.7 mph 17.3 mph N/A   Overcast
7:15 AM 29.3 °F 18.6 °F 24.6 °F 83% 30.15 in 7.0 mi North 13.8 mph - N/A   Overcast
7:35 AM 29.3 °F 20.8 °F 24.6 °F 83% 30.17 in 7.0 mi NW 9.2 mph - N/A   Overcast
7:55 AM 28.6 °F 17.7 °F 24.3 °F 84% 30.18 in 5.0 mi NNW 13.8 mph 17.3 mph N/A   Overcast
8:15 AM 28.4 °F 19.7 °F 23.7 °F 83% 30.19 in 7.0 mi NNW 9.2 mph - N/A   Mostly Cloudy
8:35 AM 28.0 °F 18.1 °F 23.5 °F 83% 30.20 in 5.0 mi NNW 11.5 mph - N/A   Haze
8:55 AM 27.5 °F 17.4 °F 22.6 °F 82% 30.20 in 7.0 mi NNW 11.5 mph - N/A   Mostly Cloudy
9:15 AM 27.3 °F 17.7 °F 22.6 °F 83% 30.21 in 7.0 mi NNW 10.4 mph - N/A   Mostly Cloudy
9:35 AM 27.5 °F 18.0 °F 21.9 °F 80% 30.22 in 7.0 mi NNW 10.4 mph - N/A   Mostly Cloudy
9:55 AM 27.1 °F 16.9 °F 21.6 °F 80% 30.22 in 7.0 mi North 11.5 mph - N/A   Scattered Clouds
10:15 AM 27.1 °F 17.5 °F 21.4 °F 79% 30.23 in 10.0 mi NNW 10.4 mph - N/A   Scattered Clouds
10:35 AM 27.3 °F 19.1 °F 21.2 °F 78% 30.22 in 7.0 mi NNW 8.1 mph - N/A   Mostly Cloudy
10:55 AM 27.0 °F 18.7 °F 21.4 °F 79% 30.23 in 5.0 mi NW 8.1 mph - N/A   Haze
11:15 AM 26.8 °F 18.5 °F 21.9 °F 82% 30.25 in 5.0 mi NW 8.1 mph - N/A   Haze
11:35 AM 26.8 °F 18.5 °F 23.0 °F 86% 30.25 in 4.0 mi NNW 8.1 mph - N/A   Mostly Cloudy
11:55 AM 26.4 °F 17.3 °F 22.8 °F 86% 30.26 in 4.0 mi NNW 9.2 mph - N/A   Mostly Cloudy
12:15 PM 26.6 °F 17.5 °F 22.8 °F 86% 30.24 in 3.0 mi NNW 9.2 mph - N/A   Overcast
12:35 PM 26.4 °F 16.6 °F 23.0 °F 87% 30.23 in 3.0 mi NNW 10.4 mph - N/A   Overcast
12:55 PM 26.1 °F 15.0 °F 22.8 °F 88% 30.23 in 3.0 mi NNW 12.7 mph - N/A   Overcast
1:15 PM 26.1 °F 15.6 °F 23.2 °F 89% 30.23 in 2.5 mi NW 11.5 mph - N/A   Overcast
1:35 PM 25.7 °F 14.6 °F 23.4 °F 91% 30.23 in 2.5 mi NNW 12.7 mph - N/A   Overcast
1:55 PM 25.7 °F 16.4 °F 23.5 °F 92% 30.23 in 2.0 mi NW 9.2 mph - N/A   Overcast
2:15 PM 25.5 °F 16.9 °F 23.4 °F 92% 30.23 in 2.0 mi North 8.1 mph - N/A   Overcast
2:35 PM 25.7 °F 15.7 °F 23.7 °F 92% 30.22 in 2.5 mi NNW 10.4 mph - N/A   Mist
2:55 PM 25.5 °F 15.5 °F 23.5 °F 92% 30.22 in 3.0 mi NNW 10.4 mph - N/A   Overcast
3:15 PM 25.5 °F 16.2 °F 23.4 °F 92% 30.22 in 4.0 mi NNW 9.2 mph - N/A   Scattered Clouds
3:35 PM 25.7 °F 17.1 °F 23.5 °F 92% 30.21 in 4.0 mi North 8.1 mph - N/A   Scattered Clouds
3:55 PM 25.7 °F 17.1 °F 23.2 °F 90% 30.22 in 5.0 mi North 8.1 mph - N/A   Mostly Cloudy
4:15 PM 26.1 °F 16.8 °F 22.1 °F 85% 30.23 in 7.0 mi North 9.2 mph - N/A   Mostly Cloudy
4:35 PM 25.7 °F 15.7 °F 21.0 °F 82% 30.24 in 10.0 mi North 10.4 mph - N/A   Mostly Cloudy
4:55 PM 25.7 °F 16.4 °F 20.3 °F 80% 30.25 in 10.0 mi North 9.2 mph - N/A   Mostly Cloudy
5:15 PM 25.3 °F 16.0 °F 19.8 °F 79% 30.25 in 10.0 mi North 9.2 mph - N/A   Mostly Cloudy
5:35 PM 24.8 °F 15.3 °F 19.2 °F 79% 30.26 in 10.0 mi North 9.2 mph - N/A   Mostly Cloudy
5:55 PM 24.4 °F 12.4 °F 19.2 °F 81% 30.27 in 7.0 mi North 13.8 mph - N/A   Overcast
6:15 PM 23.7 °F 12.1 °F 19.0 °F 82% 30.27 in 5.0 mi North 12.7 mph - N/A   Haze
6:35 PM 23.5 °F 12.4 °F 18.1 °F 80% 30.27 in 10.0 mi North 11.5 mph - N/A   Overcast
6:55 PM 22.8 °F 10.4 °F 17.1 °F 79% 30.28 in 10.0 mi North 13.8 mph - N/A   Overcast
7:15 PM 22.3 °F 10.8 °F 17.2 °F 81% 30.29 in 10.0 mi North 11.5 mph - N/A   Overcast
7:30 PM 22.1 °F 12.0 °F 16.7 °F 80% 30.30 in 10.0 mi NNE 9.2 mph - N/A   Mostly Cloudy
7:55 PM 21.7 °F 9.0 °F 16.7 °F 81% 30.29 in 7.0 mi NNE 13.8 mph 17.3 mph N/A   Overcast
8:15 PM 21.0 °F 8.6 °F 16.7 °F 83% 30.30 in 7.0 mi NNE 12.7 mph - N/A   Overcast
8:35 PM 20.8 °F 9.0 °F 16.5 °F 83% 30.29 in 10.0 mi NNE 11.5 mph - N/A   Overcast
8:55 PM 20.3 °F 8.3 °F 16.2 °F 84% 30.30 in 7.0 mi NNE 11.5 mph 16.1 mph N/A   Overcast
9:15 PM 19.9 °F 7.3 °F 15.8 °F 84% 30.29 in 7.0 mi NNE 12.7 mph - N/A   Mostly Cloudy
9:35 PM 19.4 °F 5.5 °F 14.9 °F 83% 30.28 in 10.0 mi NNE 15.0 mph 18.4 mph N/A   Overcast
9:55 PM 19.2 °F 7.7 °F 14.5 °F 82% 30.31 in 10.0 mi North 10.4 mph - N/A   Overcast
10:15 PM 19.2 °F 5.8 °F 14.5 °F 82% 30.30 in 10.0 mi NNE 13.8 mph 19.6 mph N/A   Overcast
10:35 PM 19.0 °F 8.2 °F 15.1 °F 85% 30.33 in 5.0 mi North 9.2 mph - N/A   Overcast
10:55 PM 18.3 °F 4.6 °F 14.9 °F 86% 30.33 in 5.0 mi North 13.8 mph - N/A   Overcast
11:15 PM 17.8 °F 3.4 °F 14.7 °F 88% 30.32 in 5.0 mi North 15.0 mph - N/A   Overcast
11:35 PM 17.6 °F 5.7 °F 14.5 °F 88% 30.31 in 5.0 mi North 10.4 mph - N/A   Overcast
11:55 PM 17.1 °F 4.3 °F 13.8 °F 87% 30.30 in 7.0 mi North 11.5 mph 16.1 mph N/A   Overcast